createdAt,value
2017-12-05T00:00:05.106Z,10.80
2017-12-05T00:02:31.420Z,10.00
2017-12-05T00:04:57.876Z,9.43
2017-12-05T00:07:25.065Z,9.45
2017-12-05T00:09:51.582Z,8.00
2017-12-05T00:12:18.041Z,7.85
2017-12-05T00:14:44.521Z,6.85
2017-12-05T00:17:11.739Z,7.60
2017-12-05T00:19:38.217Z,8.40
2017-12-05T00:22:04.644Z,7.22
2017-12-05T00:24:31.845Z,8.00
2017-12-05T00:26:58.265Z,9.23
2017-12-05T00:29:24.694Z,8.35
2017-12-05T00:31:51.158Z,8.48
2017-12-05T00:34:17.592Z,9.77
2017-12-05T00:36:44.025Z,9.00
2017-12-05T00:39:10.460Z,9.60
2017-12-05T00:41:36.915Z,10.60
2017-12-05T00:44:03.340Z,10.23
2017-12-05T00:46:29.792Z,9.25
2017-12-05T00:48:56.217Z,10.40
2017-12-05T00:51:22.691Z,11.00
2017-12-05T00:53:49.088Z,11.18
2017-12-05T00:56:15.528Z,10.68
2017-12-05T00:58:41.950Z,11.30
2017-12-05T01:01:08.350Z,10.60
2017-12-05T01:03:34.772Z,10.80
2017-12-05T01:06:01.217Z,10.70
2017-12-05T01:08:27.637Z,10.75
2017-12-05T01:10:54.154Z,10.77
2017-12-05T01:13:20.683Z,9.68
2017-12-05T01:15:47.105Z,10.60
2017-12-05T01:18:14.606Z,9.65
2017-12-05T01:20:40.992Z,9.75
2017-12-05T01:23:07.379Z,9.30
2017-12-05T01:25:33.800Z,10.32
2017-12-05T01:28:00.222Z,13.00
2017-12-05T01:30:26.636Z,9.65
2017-12-05T01:32:53.130Z,10.93
2017-12-05T01:35:20.337Z,11.12
2017-12-05T01:37:46.741Z,9.02
2017-12-05T01:40:13.898Z,10.25
2017-12-05T01:42:40.397Z,10.50
2017-12-05T01:45:06.829Z,12.32
2017-12-05T01:47:33.349Z,10.90
2017-12-05T01:49:59.781Z,10.80
2017-12-05T01:52:26.253Z,11.52
2017-12-05T01:54:52.713Z,10.25
2017-12-05T01:57:19.378Z,11.50
2017-12-05T01:59:45.818Z,11.80
2017-12-05T02:02:12.272Z,11.75
2017-12-05T02:04:39.532Z,10.40
2017-12-05T02:07:05.972Z,9.43
2017-12-05T02:09:33.211Z,9.80
2017-12-05T02:12:00.409Z,10.25
2017-12-05T02:14:26.894Z,9.38
2017-12-05T02:16:53.333Z,10.32
2017-12-05T02:19:20.569Z,11.10
2017-12-05T02:21:47.838Z,11.45
2017-12-05T02:24:14.265Z,11.32
2017-12-05T02:26:40.704Z,10.82
2017-12-05T02:29:07.850Z,11.15
2017-12-05T02:31:34.272Z,9.30
2017-12-05T02:34:00.688Z,9.80
2017-12-05T02:36:27.954Z,9.77
2017-12-05T02:38:54.341Z,10.95
2017-12-05T02:41:20.797Z,10.45
2017-12-05T02:43:47.261Z,11.30
2017-12-05T02:46:14.677Z,11.30
2017-12-05T02:48:41.195Z,10.70
2017-12-05T02:51:07.657Z,10.40
2017-12-05T02:53:34.132Z,10.70
2017-12-05T02:56:01.329Z,9.82
2017-12-05T02:58:27.827Z,10.27
2017-12-05T03:00:54.350Z,11.12
2017-12-05T03:03:20.809Z,11.82
2017-12-05T03:05:47.408Z,11.30
2017-12-05T03:08:14.628Z,11.00
2017-12-05T03:10:41.093Z,10.25
2017-12-05T03:13:08.305Z,11.12
2017-12-05T03:15:34.781Z,13.15
2017-12-05T03:18:01.232Z,12.73
2017-12-05T03:20:27.670Z,11.57
2017-12-05T03:22:54.884Z,11.57
2017-12-05T03:25:21.345Z,10.90
2017-12-05T03:27:48.496Z,11.85
2017-12-05T03:30:15.666Z,11.25
2017-12-05T03:32:42.090Z,11.15
2017-12-05T03:35:19.626Z,11.55
2017-12-05T03:37:46.102Z,11.12
2017-12-05T03:40:12.496Z,11.52
2017-12-05T03:42:38.907Z,10.57
2017-12-05T03:45:05.402Z,10.80
2017-12-05T03:47:32.904Z,12.05
2017-12-05T03:49:59.308Z,10.85
2017-12-05T03:52:25.732Z,10.02
2017-12-05T03:54:52.946Z,10.43
2017-12-05T03:57:19.345Z,10.65
2017-12-05T03:59:45.748Z,11.50
2017-12-05T04:02:12.885Z,10.80
2017-12-05T04:04:39.317Z,11.60
2017-12-05T04:07:05.992Z,10.35
2017-12-05T04:09:32.388Z,10.35
2017-12-05T04:11:58.832Z,10.77
2017-12-05T04:14:25.352Z,10.73
2017-12-05T04:16:52.032Z,11.00
2017-12-05T04:19:18.433Z,12.15
2017-12-05T04:21:45.601Z,11.60
2017-12-05T04:24:12.016Z,10.35
2017-12-05T04:26:39.157Z,10.48
2017-12-05T04:29:06.336Z,9.23
2017-12-05T04:31:33.480Z,10.80
2017-12-05T04:34:00.766Z,12.48
2017-12-05T04:36:27.208Z,11.75
2017-12-05T04:38:53.666Z,10.75
2017-12-05T04:41:20.104Z,12.30
2017-12-05T04:43:46.545Z,11.43
2017-12-05T04:46:13.768Z,11.45
2017-12-05T04:48:40.240Z,11.27
2017-12-05T04:51:07.428Z,11.25
2017-12-05T04:53:33.889Z,13.52
2017-12-05T04:56:00.321Z,12.82
2017-12-05T04:58:27.537Z,12.23
2017-12-05T05:00:53.985Z,12.35
2017-12-05T05:03:20.461Z,12.95
2017-12-05T05:05:46.921Z,11.63
2017-12-05T05:08:13.374Z,12.55
2017-12-05T05:10:39.810Z,11.73
2017-12-05T05:13:06.225Z,10.70
2017-12-05T05:15:32.713Z,11.55
2017-12-05T05:17:59.121Z,11.30
2017-12-05T05:20:25.541Z,10.45
2017-12-05T05:22:51.940Z,11.05
2017-12-05T05:25:19.437Z,11.12
2017-12-05T05:27:45.865Z,11.52
2017-12-05T05:30:12.325Z,11.00
2017-12-05T05:32:38.777Z,12.23
2017-12-05T05:35:05.995Z,10.60
2017-12-05T05:37:32.457Z,11.60
2017-12-05T05:39:58.853Z,11.77
2017-12-05T05:42:25.585Z,11.85
2017-12-05T05:44:52.040Z,12.50
2017-12-05T05:47:18.500Z,11.57
2017-12-05T05:49:44.972Z,12.02
2017-12-05T05:52:11.498Z,12.57
2017-12-05T05:54:37.940Z,15.90
2017-12-05T05:57:04.337Z,15.45
2017-12-05T05:59:31.531Z,13.77
2017-12-05T06:01:57.966Z,14.45
2017-12-05T06:04:24.421Z,27.70
2017-12-05T06:06:50.837Z,17.95
2017-12-05T06:09:17.242Z,14.93
2017-12-05T06:11:44.396Z,13.60
2017-12-05T06:14:11.584Z,13.05
2017-12-05T06:16:38.016Z,13.45
2017-12-05T06:19:04.438Z,12.40
2017-12-05T06:21:30.872Z,11.45
2017-12-05T06:23:57.294Z,12.50
2017-12-05T06:26:23.774Z,13.70
2017-12-05T06:28:50.173Z,13.65
2017-12-05T06:31:16.633Z,12.07
2017-12-05T06:33:43.887Z,12.18
2017-12-05T06:36:11.073Z,12.52
2017-12-05T06:38:38.228Z,13.20
2017-12-05T06:41:05.349Z,11.73
2017-12-05T06:43:32.537Z,11.15
2017-12-05T06:45:58.964Z,12.50
2017-12-05T06:48:25.611Z,11.88
2017-12-05T06:50:52.073Z,11.52
2017-12-05T06:53:18.577Z,11.55
2017-12-05T06:55:45.086Z,13.32
2017-12-05T06:58:11.596Z,13.60
2017-12-05T07:00:38.840Z,13.43
2017-12-05T07:03:06.054Z,12.80
2017-12-05T07:05:32.532Z,11.10
2017-12-05T07:07:58.997Z,14.15
2017-12-05T07:10:25.478Z,14.13
2017-12-05T07:12:51.965Z,12.82
2017-12-05T07:15:18.443Z,13.90
2017-12-05T07:17:45.013Z,17.00
2017-12-05T07:20:12.217Z,11.93
2017-12-05T07:22:38.677Z,11.50
2017-12-05T07:25:05.911Z,12.75
2017-12-05T07:27:32.402Z,12.05
2017-12-05T07:29:58.898Z,16.65
2017-12-05T07:32:25.351Z,11.85
2017-12-05T07:34:52.967Z,12.25
2017-12-05T07:37:20.205Z,12.88
2017-12-05T07:39:46.660Z,12.02
2017-12-05T07:42:13.170Z,12.05
2017-12-05T07:44:39.683Z,11.60
2017-12-05T07:47:06.201Z,12.85
2017-12-05T07:49:32.661Z,14.40
2017-12-05T07:51:59.429Z,14.40
2017-12-05T07:54:25.938Z,17.00
2017-12-05T07:56:52.412Z,14.32
2017-12-05T07:59:18.881Z,14.73
2017-12-05T08:01:46.387Z,12.13
2017-12-05T08:04:12.898Z,12.63
2017-12-05T08:06:39.389Z,11.77
2017-12-05T08:09:05.869Z,13.02
2017-12-05T08:11:32.436Z,15.32
2017-12-05T08:13:58.929Z,15.32
2017-12-05T08:16:25.468Z,14.60
2017-12-05T08:18:51.927Z,11.25
2017-12-05T08:21:18.461Z,12.00
2017-12-05T08:23:44.973Z,11.27
2017-12-05T08:26:11.486Z,21.77
2017-12-05T08:28:38.716Z,11.07
2017-12-05T08:31:05.953Z,10.80
2017-12-05T08:33:32.468Z,11.38
2017-12-05T08:35:58.957Z,10.95
2017-12-05T08:38:25.714Z,10.35
2017-12-05T08:40:52.227Z,12.13
2017-12-05T08:43:18.714Z,11.60
2017-12-05T08:45:45.230Z,11.35
2017-12-05T08:48:11.753Z,11.02
2017-12-05T08:50:38.416Z,12.25
2017-12-05T08:53:04.884Z,11.75
2017-12-05T08:55:31.343Z,11.65
2017-12-05T08:57:57.871Z,11.32
2017-12-05T09:00:24.369Z,10.45
2017-12-05T09:02:50.876Z,10.80
2017-12-05T09:05:17.326Z,9.80
2017-12-05T09:07:43.814Z,9.40
2017-12-05T09:10:11.017Z,8.63
2017-12-05T09:12:37.533Z,10.27
2017-12-05T09:15:04.007Z,9.15
2017-12-05T09:17:31.228Z,8.07
2017-12-05T09:19:57.701Z,9.95
2017-12-05T09:22:25.202Z,9.75
2017-12-05T09:24:51.674Z,9.25
2017-12-05T09:27:18.126Z,10.43
2017-12-05T09:29:44.624Z,11.52
2017-12-05T09:32:11.052Z,11.05
2017-12-05T09:34:37.552Z,10.82
2017-12-05T09:37:04.055Z,11.98
2017-12-05T09:39:31.287Z,10.02
2017-12-05T09:41:57.776Z,9.93
2017-12-05T09:44:24.276Z,11.15
2017-12-05T09:46:51.596Z,9.80
2017-12-05T09:49:18.277Z,9.02
2017-12-05T09:51:45.498Z,9.55
2017-12-05T09:54:11.992Z,8.98
2017-12-05T09:56:38.500Z,10.23
2017-12-05T09:59:05.680Z,9.18
2017-12-05T10:01:32.177Z,8.98
2017-12-05T10:03:59.383Z,9.98
2017-12-05T10:06:25.848Z,9.05
2017-12-05T10:08:52.309Z,10.05
2017-12-05T10:11:18.819Z,9.32
2017-12-05T10:13:45.273Z,9.60
2017-12-05T10:16:12.505Z,11.50
2017-12-05T10:18:39.726Z,7.60
2017-12-05T10:21:06.194Z,8.50
2017-12-05T10:23:32.773Z,7.85
2017-12-05T10:25:59.249Z,8.52
2017-12-05T10:28:25.711Z,7.75
2017-12-05T10:30:52.212Z,7.60
2017-12-05T10:33:18.667Z,7.47
2017-12-05T10:35:45.140Z,10.05
2017-12-05T10:38:11.604Z,7.35
2017-12-05T10:40:38.076Z,7.15
2017-12-05T10:43:04.545Z,8.43
2017-12-05T10:45:31.006Z,10.50
2017-12-05T10:47:57.656Z,10.73
2017-12-05T10:50:24.123Z,9.95
2017-12-05T10:52:50.628Z,8.45
2017-12-05T10:55:17.132Z,9.43
2017-12-05T10:57:44.145Z,10.77
2017-12-05T11:00:10.610Z,9.00
2017-12-05T11:02:37.164Z,7.57
2017-12-05T11:05:03.629Z,8.02
2017-12-05T11:07:30.828Z,8.35
2017-12-05T11:09:57.252Z,8.35
2017-12-05T11:12:23.678Z,8.50
2017-12-05T11:14:50.200Z,8.93
2017-12-05T11:17:17.353Z,9.05
2017-12-05T11:19:43.866Z,8.07
2017-12-05T11:22:10.335Z,8.05
2017-12-05T11:24:36.831Z,9.85
2017-12-05T11:27:03.320Z,8.20
2017-12-05T11:29:29.778Z,9.02
2017-12-05T11:31:56.326Z,8.77
2017-12-05T11:34:22.730Z,8.77
2017-12-05T11:36:49.204Z,9.30
2017-12-05T11:39:16.381Z,9.40
2017-12-05T11:41:42.891Z,12.77
2017-12-05T11:44:09.288Z,13.48
2017-12-05T11:46:35.780Z,12.10
2017-12-05T11:49:02.241Z,11.68
2017-12-05T11:51:28.741Z,11.23
2017-12-05T11:53:55.909Z,10.30
2017-12-05T11:56:22.386Z,10.13
2017-12-05T11:58:48.842Z,10.48
2017-12-05T12:01:16.357Z,10.20
2017-12-05T12:03:43.581Z,10.82
2017-12-05T12:06:10.033Z,10.05
2017-12-05T12:08:36.513Z,10.95
2017-12-05T12:11:02.913Z,10.88
2017-12-05T12:13:29.348Z,11.30
2017-12-05T12:15:55.770Z,11.73
2017-12-05T12:18:22.248Z,11.35
2017-12-05T12:20:48.673Z,11.45
2017-12-05T12:23:15.080Z,11.07
2017-12-05T12:25:41.528Z,10.98
2017-12-05T12:28:07.958Z,10.95
2017-12-05T12:30:34.408Z,11.60
2017-12-05T12:33:00.841Z,10.40
2017-12-05T12:35:27.541Z,14.05
2017-12-05T12:37:53.981Z,12.80
2017-12-05T12:40:20.416Z,12.05
2017-12-05T12:42:46.873Z,11.65
2017-12-05T12:45:13.348Z,11.30
2017-12-05T12:47:40.521Z,10.90
2017-12-05T12:50:06.943Z,9.10
2017-12-05T12:52:33.677Z,9.80
2017-12-05T12:55:00.081Z,11.60
2017-12-05T12:57:26.994Z,12.32
2017-12-05T12:59:53.400Z,10.98
2017-12-05T13:02:19.849Z,11.30
2017-12-05T13:04:46.279Z,10.10
2017-12-05T13:07:12.706Z,8.93
2017-12-05T13:09:39.113Z,8.07
2017-12-05T13:12:05.913Z,7.40
2017-12-05T13:14:32.376Z,13.48
2017-12-05T13:16:58.817Z,21.40
2017-12-05T13:19:25.258Z,10.23
2017-12-05T13:21:51.682Z,7.55
2017-12-05T13:24:18.859Z,6.90
2017-12-05T13:26:45.310Z,7.53
2017-12-05T13:29:12.508Z,6.80
2017-12-05T13:31:39.669Z,8.07
2017-12-05T13:34:07.052Z,7.60
2017-12-05T13:36:33.509Z,11.60
2017-12-05T13:38:59.937Z,13.38
2017-12-05T13:41:26.373Z,13.30
2017-12-05T13:43:52.830Z,9.95
2017-12-05T13:46:20.036Z,7.45
2017-12-05T13:48:46.479Z,7.00
2017-12-05T13:51:13.169Z,7.97
2017-12-05T13:53:39.612Z,7.60
2017-12-05T13:56:06.014Z,8.18
2017-12-05T13:58:32.753Z,6.90
2017-12-05T14:00:59.937Z,7.68
2017-12-05T14:03:26.411Z,8.10
2017-12-05T14:05:52.893Z,7.87
2017-12-05T14:08:19.335Z,5.70
2017-12-05T14:10:45.846Z,6.28
2017-12-05T14:13:13.253Z,7.18
2017-12-05T14:15:39.800Z,6.78
2017-12-05T14:18:06.337Z,8.48
2017-12-05T14:20:32.839Z,9.50
2017-12-05T14:22:59.309Z,9.25
2017-12-05T14:25:25.793Z,8.80
2017-12-05T14:27:53.033Z,7.70
2017-12-05T14:30:20.247Z,7.90
2017-12-05T14:32:46.676Z,8.25
2017-12-05T14:35:13.132Z,7.43
2017-12-05T14:37:39.573Z,7.95
2017-12-05T14:40:06.024Z,7.60
2017-12-05T14:42:32.505Z,7.28
2017-12-05T14:44:59.051Z,6.37
2017-12-05T14:47:25.501Z,8.25
2017-12-05T14:49:51.977Z,7.53
2017-12-05T14:52:18.404Z,7.57
2017-12-05T14:54:44.905Z,7.43
2017-12-05T14:57:11.361Z,7.57
2017-12-05T14:59:37.837Z,7.30
2017-12-05T15:02:04.333Z,10.50
2017-12-05T15:04:30.769Z,8.80
2017-12-05T15:06:57.965Z,8.48
2017-12-05T15:09:24.493Z,7.68
2017-12-05T15:11:51.229Z,8.27
2017-12-05T15:14:17.673Z,16.23
2017-12-05T15:16:44.108Z,20.95
2017-12-05T15:19:10.541Z,41.97
2017-12-05T15:21:37.007Z,41.83
2017-12-05T15:24:03.504Z,21.62
2017-12-05T15:26:29.994Z,12.32
2017-12-05T15:28:56.503Z,10.68
2017-12-05T15:31:22.997Z,10.80
2017-12-05T15:33:49.477Z,10.30
2017-12-05T15:36:16.024Z,14.25
2017-12-05T15:38:42.550Z,14.70
2017-12-05T15:41:09.053Z,15.70
2017-12-05T15:43:36.315Z,16.70
2017-12-05T15:46:02.801Z,16.33
2017-12-05T15:48:30.153Z,15.23
2017-12-05T15:50:56.666Z,18.62
2017-12-05T15:53:23.136Z,18.20
2017-12-05T15:55:49.622Z,16.58
2017-12-05T15:58:16.101Z,14.68
2017-12-05T16:00:42.606Z,12.70
2017-12-05T16:03:09.781Z,14.05
2017-12-05T16:05:36.546Z,17.62
2017-12-05T16:08:03.027Z,22.60
2017-12-05T16:10:30.225Z,19.52
2017-12-05T16:12:56.746Z,30.20
2017-12-05T16:15:23.208Z,53.42
2017-12-05T16:17:49.730Z,47.70
2017-12-05T16:20:16.165Z,29.98
2017-12-05T16:22:42.660Z,26.73
2017-12-05T16:25:09.192Z,25.98
2017-12-05T16:27:35.694Z,19.75
2017-12-05T16:30:02.981Z,19.80
2017-12-05T16:32:29.514Z,20.33
2017-12-05T16:34:55.974Z,17.02
2017-12-05T16:37:22.420Z,17.80
2017-12-05T16:39:48.880Z,18.42
2017-12-05T16:42:15.361Z,17.73
2017-12-05T16:44:41.798Z,17.80
2017-12-05T16:47:08.294Z,15.85
2017-12-05T16:49:35.506Z,21.48
2017-12-05T16:52:01.974Z,18.65
2017-12-05T16:54:28.465Z,17.58
2017-12-05T16:56:54.938Z,18.87
2017-12-05T16:59:21.491Z,20.35
2017-12-05T17:01:48.105Z,18.77
2017-12-05T17:04:15.334Z,20.83
2017-12-05T17:06:41.881Z,17.62
2017-12-05T17:09:08.384Z,21.17
2017-12-05T17:11:34.879Z,22.65
2017-12-05T17:14:02.170Z,21.17
2017-12-05T17:16:28.670Z,24.33
2017-12-05T17:18:55.896Z,25.30
2017-12-05T17:21:22.396Z,23.52
2017-12-05T17:23:48.902Z,21.83
2017-12-05T17:26:15.689Z,22.90
2017-12-05T17:28:42.166Z,22.83
2017-12-05T17:31:09.390Z,18.92
2017-12-05T17:33:36.677Z,20.37
2017-12-05T17:36:03.852Z,21.33
2017-12-05T17:38:30.373Z,19.65
2017-12-05T17:40:56.797Z,24.27
2017-12-05T17:43:23.281Z,25.20
2017-12-05T17:45:49.754Z,24.65
2017-12-05T17:48:16.241Z,19.33
2017-12-05T17:50:42.769Z,17.77
2017-12-05T17:53:09.241Z,15.60
2017-12-05T17:55:36.460Z,15.15
2017-12-05T17:58:02.973Z,16.55
2017-12-05T18:00:29.467Z,18.48
2017-12-05T18:02:55.994Z,18.40
2017-12-05T18:05:22.498Z,25.23
2017-12-05T18:07:49.048Z,26.58
2017-12-05T18:10:15.549Z,24.90
2017-12-05T18:12:42.081Z,20.58
2017-12-05T18:15:08.626Z,19.05
2017-12-05T18:17:35.161Z,20.40
2017-12-05T18:20:01.647Z,17.95
2017-12-05T18:22:28.876Z,17.83
2017-12-05T18:24:56.858Z,19.55
2017-12-05T18:27:24.122Z,20.12
2017-12-05T18:29:50.640Z,20.83
2017-12-05T18:32:17.929Z,24.12
2017-12-05T18:34:44.448Z,23.17
2017-12-05T18:37:11.006Z,25.23
2017-12-05T18:39:37.531Z,25.00
2017-12-05T18:42:04.004Z,24.92
2017-12-05T18:44:30.602Z,24.63
2017-12-05T18:46:57.136Z,18.05
2017-12-05T18:49:23.645Z,20.40
2017-12-05T18:51:50.201Z,23.80
2017-12-05T18:54:16.717Z,21.80
2017-12-05T18:56:43.964Z,21.70
2017-12-05T18:59:11.208Z,19.48
2017-12-05T19:01:37.675Z,24.80
2017-12-05T19:04:04.183Z,20.00
2017-12-05T19:06:31.444Z,18.60
2017-12-05T19:08:57.967Z,17.92
2017-12-05T19:11:24.444Z,16.95
2017-12-05T19:13:50.974Z,16.25
2017-12-05T19:16:17.488Z,14.25
2017-12-05T19:18:44.025Z,15.60
2017-12-05T19:21:10.571Z,22.05
2017-12-05T19:23:37.504Z,29.45
2017-12-05T19:26:04.026Z,31.67
2017-12-05T19:28:31.291Z,26.33
2017-12-05T19:30:57.857Z,20.52
2017-12-05T19:33:24.359Z,19.30
2017-12-05T19:35:51.031Z,21.10
2017-12-05T19:38:17.518Z,20.70
2017-12-05T19:40:44.028Z,16.17
2017-12-05T19:43:10.561Z,16.70
2017-12-05T19:45:37.084Z,12.55
2017-12-05T19:48:03.585Z,14.38
2017-12-05T19:50:30.069Z,13.30
2017-12-05T19:52:56.742Z,14.02
2017-12-05T19:55:23.550Z,14.23
2017-12-05T19:57:50.458Z,15.27
2017-12-05T20:00:17.316Z,14.65
2017-12-05T20:02:44.858Z,15.30
2017-12-05T20:05:11.649Z,18.95
2017-12-05T20:07:38.521Z,16.60
2017-12-05T20:10:05.313Z,14.60
2017-12-05T20:12:32.204Z,13.32
2017-12-05T20:14:59.000Z,13.52
2017-12-05T20:17:25.799Z,13.18
2017-12-05T20:19:52.555Z,13.23
2017-12-05T20:22:19.195Z,14.27
2017-12-05T20:24:46.218Z,14.25
2017-12-05T20:27:12.845Z,15.95
2017-12-05T20:29:39.414Z,16.25
2017-12-05T20:32:05.985Z,15.77
2017-12-05T20:34:32.483Z,15.32
2017-12-05T20:36:59.002Z,16.10
2017-12-05T20:39:25.721Z,16.98
2017-12-05T20:41:52.557Z,17.55
2017-12-05T20:44:19.414Z,18.15
2017-12-05T20:46:46.214Z,18.48
2017-12-05T20:49:13.665Z,16.17
2017-12-05T20:51:40.376Z,15.90
2017-12-05T20:54:07.019Z,17.10
2017-12-05T20:56:33.685Z,15.85
2017-12-05T20:59:00.336Z,15.40
2017-12-05T21:01:26.981Z,17.20
2017-12-05T21:03:53.636Z,15.52
2017-12-05T21:06:20.340Z,16.55
2017-12-05T21:08:47.784Z,16.00
2017-12-05T21:11:14.482Z,17.05
2017-12-05T21:13:41.153Z,17.45
2017-12-05T21:16:07.797Z,18.10
2017-12-05T21:18:35.216Z,17.40
2017-12-05T21:21:01.863Z,18.75
2017-12-05T21:23:28.500Z,16.67
2017-12-05T21:25:55.155Z,16.95
2017-12-05T21:28:21.814Z,16.45
2017-12-05T21:30:49.294Z,16.60
2017-12-05T21:33:15.982Z,17.60
2017-12-05T21:35:42.624Z,17.23
2017-12-05T21:38:09.269Z,16.95
2017-12-05T21:40:35.851Z,17.08
2017-12-05T21:43:02.384Z,18.90
2017-12-05T21:45:29.102Z,18.05
2017-12-05T21:47:55.558Z,19.15
2017-12-05T21:50:22.745Z,18.58
2017-12-05T21:52:49.166Z,16.08
2017-12-05T21:55:15.515Z,15.57
2017-12-05T21:57:41.874Z,15.85
2017-12-05T22:03:03.580Z,16.90
2017-12-05T22:05:29.941Z,16.17
2017-12-05T22:07:56.293Z,17.25
2017-12-05T22:10:23.464Z,15.90
2017-12-05T22:12:49.902Z,16.80
2017-12-05T22:15:16.286Z,17.00
2017-12-05T22:17:42.710Z,18.40
2017-12-05T22:20:09.176Z,19.33
2017-12-05T22:22:36.319Z,17.60
2017-12-05T22:25:02.869Z,19.48
2017-12-05T22:27:29.278Z,18.87
2017-12-05T22:29:55.681Z,18.77
2017-12-05T22:32:23.061Z,18.17
2017-12-05T22:34:49.508Z,20.30
2017-12-05T22:37:15.924Z,16.90
2017-12-05T22:39:42.341Z,17.17
2017-12-05T22:42:08.731Z,17.85
2017-12-05T22:44:35.156Z,17.33
2017-12-05T22:47:01.586Z,17.35
2017-12-05T22:49:27.995Z,17.52
2017-12-05T22:51:54.429Z,17.25
2017-12-05T22:54:20.834Z,17.40
2017-12-05T22:56:47.256Z,16.87
2017-12-05T22:59:14.405Z,17.98
2017-12-05T23:01:40.817Z,20.80
2017-12-05T23:04:07.241Z,19.08
2017-12-05T23:06:33.785Z,20.67
2017-12-05T23:09:00.992Z,19.27
2017-12-05T23:11:27.377Z,18.40
2017-12-05T23:13:54.537Z,17.40
2017-12-05T23:16:20.980Z,17.83
2017-12-05T23:18:47.382Z,19.12
2017-12-05T23:21:13.829Z,18.85
2017-12-05T23:23:40.976Z,18.35
2017-12-05T23:26:08.121Z,20.70
2017-12-05T23:28:35.250Z,17.80
2017-12-05T23:31:02.572Z,17.15
2017-12-05T23:33:29.004Z,19.48
2017-12-05T23:35:55.502Z,18.80
2017-12-05T23:38:21.953Z,18.80
2017-12-05T23:40:48.433Z,19.60
2017-12-05T23:43:14.851Z,19.02
2017-12-05T23:45:41.300Z,18.90
2017-12-05T23:48:07.716Z,16.58
2017-12-05T23:50:34.229Z,18.98
2017-12-05T23:53:00.701Z,20.90
2017-12-05T23:55:27.402Z,18.85
2017-12-05T23:57:53.849Z,18.15
